Airfield :
LOGIN :

Register | Disclaimer

   EN    FR    IT 

 










Legend :    VFR   Marginal VFR   IFR   Intensive IFR   Very Intensive IFR
Visi :
Ceiling :
>= 8 km
>= 3000ft
5 to 8 km
1000 to 3000 ft
1500m to 5 km
500 to 1000 ft
800 to 1500m
200 to 500 ft
< 800m
< 200 ft
Symbols :   Thunderstorms  Fog  Heavy snow  Heavy precipitations  Wind > 20 kt
SIGMETs :     Misc.  Thunderstorms  Icing  Turbulence  Mountain Waves  Volcanic Ashes







- Airport Elevation : 17 ft
- IATA code : CPH


EKCH - København - Kastrup (Copenhagen)

CURRENT METAR :
  • 211120Z 31013KT 9999 SCT028 20/13 Q1015 NOSIG

EXPIRED METARs :
  • 211050Z 30015KT 9999 SCT027 20/13 Q1015 NOSIG
  • 211020Z 30014KT 9999 SCT025 19/12 Q1015 NOSIG
  • 210950Z 30013KT 9999 SCT023 19/13 Q1015 NOSIG
  • 210920Z 30014KT 9999 SCT023 18/13 Q1014 NOSIG

TAF TAF EKCH
Valid from the 21 at 12:00 until the 22 at 12:00 UTC


211055Z 2112/2212 30017KT 9999 SCT020
BECMG 2117/2119 29010KT
TEMPO 2201/2208 SHRA BKN012 SCT020CB
No reported NOTAMs for that airfield.



MET'MAP, your aeronautical weather chart ! - Copyright ORBIFLY December 2007 - Disclaimer

ORBIFLY MET'MAP TEAM :

Programming & Development : Alexandra Zaïnal
Concept & Development : Baudouin d'Aumeries
Co-Development & Prog : Marc-Olivier Méhu
Technical & hardware support : Manuel Goepfert

Contact : metmap@orbifly.com




SOURCES & CREDITS :

   NOAA